createdAt,value
2018-03-22T00:01:17.080Z,98885.64
2018-03-22T00:03:44.741Z,98883.31
2018-03-22T00:06:12.444Z,98884.92
2018-03-22T00:08:39.995Z,98878.27
2018-03-22T00:11:07.655Z,98879.08
2018-03-22T00:13:35.192Z,98872.01
2018-03-22T00:16:03.088Z,98869.64
2018-03-22T00:18:31.349Z,98868.02
2018-03-22T00:20:58.981Z,98865.24
2018-03-22T00:23:26.624Z,98864.29
2018-03-22T00:25:54.319Z,98862.89
2018-03-22T00:28:21.970Z,98865.07
2018-03-22T00:30:49.759Z,98861.86
2018-03-22T00:33:17.490Z,98858.27
2018-03-22T00:35:45.299Z,98858.13
2018-03-22T00:38:13.009Z,98852.87
2018-03-22T00:40:40.662Z,98855.02
2018-03-22T00:43:08.427Z,98850.16
2018-03-22T00:45:36.116Z,98849.30
2018-03-22T00:48:03.840Z,98853.69
2018-03-22T00:50:31.537Z,98844.27
2018-03-22T00:52:59.203Z,98831.88
2018-03-22T00:55:27.144Z,98834.92
2018-03-22T00:57:55.896Z,98822.04
2018-03-22T01:00:23.584Z,98817.33
2018-03-22T01:02:51.135Z,98816.55
2018-03-22T01:05:18.834Z,98812.52
2018-03-22T01:07:46.639Z,98805.13
2018-03-22T01:10:14.355Z,98807.17
2018-03-22T01:12:43.084Z,98801.91
2018-03-22T01:15:10.618Z,98806.42
2018-03-22T01:17:38.502Z,98800.97
2018-03-22T01:20:06.144Z,98790.66
2018-03-22T01:22:33.871Z,98796.55
2018-03-22T01:25:01.529Z,98791.17
2018-03-22T01:27:29.130Z,98778.33
2018-03-22T01:29:57.283Z,98780.60
2018-03-22T01:32:24.949Z,98782.22
2018-03-22T01:34:52.559Z,98780.13
2018-03-22T01:37:20.288Z,98780.84
2018-03-22T01:39:47.854Z,98782.11
2018-03-22T01:42:15.709Z,98779.36
2018-03-22T01:44:43.419Z,98781.62
2018-03-22T01:47:11.214Z,98779.33
2018-03-22T01:49:38.903Z,98778.50
2018-03-22T01:52:06.490Z,98774.18
2018-03-22T01:54:34.331Z,98772.49
2018-03-22T01:57:01.994Z,98773.17
2018-03-22T01:59:29.548Z,98773.21
2018-03-22T02:01:57.184Z,98774.85
2018-03-22T02:04:24.833Z,98776.05
2018-03-22T02:06:53.243Z,98770.27
2018-03-22T02:09:20.907Z,98762.11
2018-03-22T02:11:48.448Z,98763.66
2018-03-22T02:14:16.045Z,98765.11
2018-03-22T02:16:43.694Z,98760.59
2018-03-22T02:19:11.383Z,98765.09
2018-03-22T02:21:39.158Z,98753.83
2018-03-22T02:24:06.834Z,98753.09
2018-03-22T02:26:34.504Z,98755.95
2018-03-22T02:29:02.149Z,98750.72
2018-03-22T02:31:29.691Z,98748.32
2018-03-22T02:33:57.223Z,98738.02
2018-03-22T02:36:24.843Z,98735.20
2018-03-22T02:38:52.649Z,98732.92
2018-03-22T02:41:20.463Z,98733.97
2018-03-22T02:43:48.129Z,98740.18
2018-03-22T02:46:16.193Z,98733.23
2018-03-22T02:48:44.104Z,98732.61
2018-03-22T02:51:11.722Z,98726.33
2018-03-22T02:53:39.551Z,98729.45
2018-03-22T02:56:07.150Z,98723.15
2018-03-22T02:58:35.049Z,98719.53
2018-03-22T03:01:02.740Z,98718.97
2018-03-22T03:03:30.548Z,98711.16
2018-03-22T03:05:58.165Z,98713.51
2018-03-22T03:08:25.949Z,98711.28
2018-03-22T03:10:53.503Z,98712.00
2018-03-22T03:13:21.233Z,98709.97
2018-03-22T03:15:48.894Z,98705.05
2018-03-22T03:18:16.417Z,98697.20
2018-03-22T03:20:44.083Z,98690.03
2018-03-22T03:23:11.839Z,98688.15
2018-03-22T03:25:40.009Z,98677.41
2018-03-22T03:28:07.719Z,98668.98
2018-03-22T03:30:35.435Z,98673.49
2018-03-22T03:33:03.080Z,98668.95
2018-03-22T03:35:30.683Z,98671.47
2018-03-22T03:37:58.213Z,98673.48
2018-03-22T03:40:25.778Z,98675.58
2018-03-22T03:42:53.479Z,98674.68
2018-03-22T03:45:21.188Z,98672.42
2018-03-22T03:47:48.719Z,98663.98
2018-03-22T03:50:16.602Z,98666.55
2018-03-22T03:52:44.243Z,98660.48
2018-03-22T03:55:12.145Z,98650.80
2018-03-22T03:57:39.780Z,98646.14
2018-03-22T04:00:07.414Z,98645.98
2018-03-22T04:02:35.167Z,98641.28
2018-03-22T04:05:02.863Z,98648.41
2018-03-22T04:07:30.469Z,98649.66
2018-03-22T04:09:58.909Z,98642.69
2018-03-22T04:12:26.718Z,98639.90
2018-03-22T04:14:54.439Z,98632.77
2018-03-22T04:17:22.084Z,98631.89
2018-03-22T04:19:49.685Z,98633.26
2018-03-22T04:22:17.198Z,98629.01
2018-03-22T04:24:44.823Z,98631.17
2018-03-22T04:27:12.607Z,98637.05
2018-03-22T04:29:40.613Z,98630.52
2018-03-22T04:32:08.155Z,98636.19
2018-03-22T04:34:35.905Z,98640.36
2018-03-22T04:37:03.600Z,98638.22
2018-03-22T04:39:31.187Z,98632.36
2018-03-22T04:41:59.009Z,98632.13
2018-03-22T04:44:26.770Z,98636.44
2018-03-22T04:46:54.520Z,98624.47
2018-03-22T04:49:22.122Z,98626.18
2018-03-22T04:51:49.773Z,98623.51
2018-03-22T04:54:17.437Z,98621.77
2018-03-22T04:56:44.969Z,98619.03
2018-03-22T04:59:12.825Z,98614.09
2018-03-22T05:01:40.577Z,98603.21
2018-03-22T05:04:08.059Z,98600.95
2018-03-22T05:06:35.699Z,98596.93
2018-03-22T05:09:03.259Z,98586.05
2018-03-22T05:11:31.023Z,98590.48
2018-03-22T05:13:59.728Z,98586.80
2018-03-22T05:16:27.652Z,98581.11
2018-03-22T05:18:55.288Z,98586.23
2018-03-22T05:21:22.958Z,98584.23
2018-03-22T05:23:50.540Z,98587.91
2018-03-22T05:26:18.433Z,98578.45
2018-03-22T05:28:46.023Z,98573.16
2018-03-22T05:31:13.554Z,98566.20
2018-03-22T05:33:41.092Z,98566.19
2018-03-22T05:36:08.875Z,98568.84
2018-03-22T05:38:36.602Z,98572.00
2018-03-22T05:41:04.234Z,98571.61
2018-03-22T05:43:31.999Z,98559.80
2018-03-22T05:45:59.704Z,98559.23
2018-03-22T05:48:27.614Z,98555.19
2018-03-22T05:50:55.298Z,98558.47
2018-03-22T05:53:23.447Z,98556.39
2018-03-22T05:55:51.262Z,98558.98
2018-03-22T05:58:18.952Z,98556.70
2018-03-22T06:00:46.586Z,98551.39
2018-03-22T06:03:14.197Z,98542.56
2018-03-22T06:05:41.913Z,98541.58
2018-03-22T06:08:09.462Z,98535.91
2018-03-22T06:10:37.330Z,98537.89
2018-03-22T06:13:04.963Z,98543.02
2018-03-22T06:15:32.978Z,98540.73
2018-03-22T06:18:00.604Z,98541.64
2018-03-22T06:20:28.292Z,98537.20
2018-03-22T06:22:56.957Z,98535.57
2018-03-22T06:25:24.489Z,98536.17
2018-03-22T06:27:52.264Z,98532.41
2018-03-22T06:30:19.792Z,98525.67
2018-03-22T06:32:47.431Z,98521.28
2018-03-22T06:35:15.210Z,98518.10
2018-03-22T06:37:42.814Z,98511.34
2018-03-22T06:40:10.723Z,98509.52
2018-03-22T06:42:42.565Z,98512.88
2018-03-22T06:45:10.367Z,98515.72
2018-03-22T06:47:38.295Z,98509.64
2018-03-22T06:50:06.013Z,98505.73
2018-03-22T06:52:33.753Z,98510.48
2018-03-22T06:55:01.768Z,98508.95
2018-03-22T06:57:29.462Z,98503.09
2018-03-22T06:59:57.353Z,98498.27
2018-03-22T07:02:25.257Z,98495.94
2018-03-22T07:04:52.965Z,98499.72
2018-03-22T07:07:20.508Z,98495.02
2018-03-22T07:09:48.122Z,98490.71
2018-03-22T07:12:15.986Z,98488.00
2018-03-22T07:14:44.013Z,98490.07
2018-03-22T07:17:11.927Z,98490.23
2018-03-22T07:19:39.649Z,98489.34
2018-03-22T07:22:07.888Z,98483.66
2018-03-22T07:24:36.158Z,98493.48
2018-03-22T07:27:03.677Z,98492.95
2018-03-22T07:29:31.414Z,98489.55
2018-03-22T07:31:59.072Z,98488.66
2018-03-22T07:34:26.694Z,98486.73
2018-03-22T07:36:54.372Z,98485.81
2018-03-22T07:39:22.226Z,98488.17
2018-03-22T07:41:49.788Z,98481.02
2018-03-22T07:44:23.029Z,98481.30
2018-03-22T07:46:50.733Z,98474.60
2018-03-22T07:49:18.446Z,98469.45
2018-03-22T07:51:46.047Z,98471.55
2018-03-22T07:54:13.697Z,98465.89
2018-03-22T07:56:41.289Z,98460.47
2018-03-22T07:59:09.527Z,98465.02
2018-03-22T08:01:37.059Z,98460.48
2018-03-22T08:04:04.748Z,98462.72
2018-03-22T08:06:32.439Z,98459.92
2018-03-22T08:09:00.827Z,98459.20
2018-03-22T08:11:28.407Z,98461.59
2018-03-22T08:13:56.113Z,98453.08
2018-03-22T08:16:23.653Z,98458.70
2018-03-22T08:18:51.453Z,98454.13
2018-03-22T08:21:19.071Z,98454.39
2018-03-22T08:23:47.060Z,98441.62
2018-03-22T08:26:14.753Z,98441.32
2018-03-22T08:28:42.328Z,98436.82
2018-03-22T08:31:09.883Z,98437.40
2018-03-22T08:33:37.433Z,98432.44
2018-03-22T08:36:05.334Z,98430.63
2018-03-22T08:38:32.973Z,98433.89
2018-03-22T08:41:00.774Z,98425.72
2018-03-22T08:43:28.424Z,98427.48
2018-03-22T08:45:56.035Z,98434.27
2018-03-22T08:48:24.254Z,98418.44
2018-03-22T08:50:51.950Z,98427.34
2018-03-22T08:53:19.493Z,98430.41
2018-03-22T08:55:47.803Z,98413.08
2018-03-22T08:58:15.378Z,98418.43
2018-03-22T09:00:42.995Z,98399.84
2018-03-22T09:03:10.697Z,98402.47
2018-03-22T09:05:38.264Z,98401.11
2018-03-22T09:08:06.153Z,98393.98
2018-03-22T09:10:33.873Z,98401.03
2018-03-22T09:13:01.469Z,98402.58
2018-03-22T09:15:29.121Z,98396.27
2018-03-22T09:17:56.928Z,98398.96
2018-03-22T09:20:24.571Z,98406.36
2018-03-22T09:22:52.288Z,98405.45
2018-03-22T09:25:20.248Z,98403.27
2018-03-22T09:27:47.898Z,98399.09
2018-03-22T09:30:15.534Z,98382.48
2018-03-22T09:32:43.156Z,98375.77
2018-03-22T09:35:11.672Z,98376.34
2018-03-22T09:37:39.345Z,98373.27
2018-03-22T09:40:07.099Z,98369.22
2018-03-22T09:42:34.734Z,98360.36
2018-03-22T09:45:02.569Z,98358.47
2018-03-22T09:47:30.489Z,98346.90
2018-03-22T09:49:58.038Z,98347.07
2018-03-22T09:52:25.998Z,98342.69
2018-03-22T09:54:54.273Z,98340.72
2018-03-22T09:57:22.039Z,98334.91
2018-03-22T09:59:50.168Z,98335.77
2018-03-22T10:02:17.698Z,98326.94
2018-03-22T10:04:45.273Z,98330.38
2018-03-22T10:07:13.112Z,98320.69
2018-03-22T10:09:41.039Z,98318.66
2018-03-22T10:12:08.818Z,98315.44
2018-03-22T10:14:36.543Z,98315.96
2018-03-22T10:17:04.338Z,98313.40
2018-03-22T10:19:32.937Z,98316.02
2018-03-22T10:22:00.562Z,98317.48
2018-03-22T10:24:28.230Z,98311.53
2018-03-22T10:26:55.864Z,98308.67
2018-03-22T10:29:23.797Z,98306.02
2018-03-22T10:31:51.438Z,98299.22
2018-03-22T10:34:19.484Z,98286.78
2018-03-22T10:36:47.248Z,98291.79
2018-03-22T10:39:15.152Z,98282.83
2018-03-22T10:41:42.927Z,98282.47
2018-03-22T10:44:11.304Z,98273.06
2018-03-22T10:46:39.148Z,98264.79
2018-03-22T10:49:08.489Z,98254.45
2018-03-22T10:51:36.142Z,98265.15
2018-03-22T10:54:03.803Z,98261.61
2018-03-22T10:56:31.543Z,98259.31
2018-03-22T10:58:59.567Z,98259.19
2018-03-22T11:01:32.787Z,98251.59
2018-03-22T11:04:00.331Z,98247.67
2018-03-22T11:06:37.243Z,98238.88
2018-03-22T11:09:05.829Z,98236.53
2018-03-22T11:11:33.569Z,98233.17
2018-03-22T11:14:01.249Z,98227.14
2018-03-22T11:16:29.289Z,98207.15
2018-03-22T11:18:56.824Z,98216.34
2018-03-22T11:21:24.462Z,98206.02
2018-03-22T11:23:52.052Z,98203.34
2018-03-22T11:26:19.733Z,98191.85
2018-03-22T11:28:47.652Z,98187.14
2018-03-22T11:31:16.174Z,98180.66
2018-03-22T11:33:44.091Z,98177.06
2018-03-22T11:36:11.804Z,98175.12
2018-03-22T11:38:39.574Z,98173.44
2018-03-22T11:41:07.268Z,98168.95
2018-03-22T11:43:34.888Z,98159.98
2018-03-22T11:46:03.394Z,98155.62
2018-03-22T11:48:31.037Z,98152.62
2018-03-22T11:50:58.781Z,98146.44
2018-03-22T11:53:27.937Z,98140.63
2018-03-22T11:55:55.769Z,98141.53
2018-03-22T11:58:24.231Z,98140.22
2018-03-22T12:00:51.928Z,98132.13
2018-03-22T12:03:19.559Z,98133.19
2018-03-22T12:05:47.888Z,98132.91
2018-03-22T12:08:15.652Z,98125.16
2018-03-22T12:10:43.296Z,98131.05
2018-03-22T12:13:10.899Z,98128.34
2018-03-22T12:15:38.702Z,98114.30
2018-03-22T12:18:06.629Z,98110.78
2018-03-22T12:20:34.249Z,98115.27
2018-03-22T12:23:01.900Z,98120.11
2018-03-22T12:25:29.537Z,98119.56
2018-03-22T12:27:57.243Z,98121.27
2018-03-22T12:30:25.603Z,98113.75
2018-03-22T12:32:53.170Z,98111.76
2018-03-22T12:35:21.237Z,98104.31
2018-03-22T12:37:49.744Z,98104.65
2018-03-22T12:40:18.792Z,98104.91
2018-03-22T12:42:46.677Z,98094.91
2018-03-22T12:45:14.470Z,98097.06
2018-03-22T12:47:42.478Z,98096.13
2018-03-22T12:50:10.241Z,98097.52
2018-03-22T12:52:37.813Z,98094.67
2018-03-22T12:55:05.424Z,98099.94
2018-03-22T12:57:33.132Z,98101.39
2018-03-22T13:00:00.998Z,98100.11
2018-03-22T13:02:28.672Z,98113.44
2018-03-22T13:04:56.229Z,98108.10
2018-03-22T13:07:23.834Z,98107.12
2018-03-22T13:09:52.534Z,98111.80
2018-03-22T13:12:20.194Z,98105.77
2018-03-22T13:14:47.813Z,98099.27
2018-03-22T13:17:15.812Z,98099.53
2018-03-22T13:19:43.449Z,98096.88
2018-03-22T13:22:11.079Z,98091.95
2018-03-22T13:24:38.709Z,98097.78
2018-03-22T13:27:06.536Z,98090.14
2018-03-22T13:29:34.112Z,98093.74
2018-03-22T13:32:01.978Z,98081.83
2018-03-22T13:34:29.888Z,98071.86
2018-03-22T13:36:57.567Z,98064.13
2018-03-22T13:39:25.388Z,98062.48
2018-03-22T13:41:53.016Z,98060.56
2018-03-22T13:44:20.803Z,98052.55
2018-03-22T13:46:48.484Z,98048.45
2018-03-22T13:49:16.489Z,98050.97
2018-03-22T13:51:44.094Z,98043.39
2018-03-22T13:54:11.786Z,98042.19
2018-03-22T13:56:39.436Z,98042.05
2018-03-22T13:59:06.984Z,98046.95
2018-03-22T14:01:34.511Z,98051.63
2018-03-22T14:04:02.164Z,98051.42
2018-03-22T14:06:29.957Z,98045.27
2018-03-22T14:08:57.582Z,98032.75
2018-03-22T14:11:25.304Z,98029.72
2018-03-22T14:13:53.087Z,98023.39
2018-03-22T14:16:20.768Z,98023.16
2018-03-22T14:18:48.491Z,98015.22
2018-03-22T14:21:16.168Z,98009.14
2018-03-22T14:23:43.912Z,98002.63
2018-03-22T14:26:11.633Z,97993.31
2018-03-22T14:28:39.177Z,97986.45
2018-03-22T14:31:06.954Z,97984.48
2018-03-22T14:33:34.510Z,97986.13
2018-03-22T14:36:02.137Z,97978.30
2018-03-22T14:38:29.927Z,97976.88
2018-03-22T14:40:57.769Z,97976.42
2018-03-22T14:43:25.437Z,97966.69
2018-03-22T14:45:53.179Z,97961.38
2018-03-22T14:48:20.886Z,97961.27
2018-03-22T14:50:48.431Z,97950.78
2018-03-22T14:53:16.020Z,97949.71
2018-03-22T14:55:43.611Z,97948.10
2018-03-22T14:58:11.324Z,97947.26
2018-03-22T15:00:39.021Z,97949.94
2018-03-22T15:03:06.562Z,97938.42
2018-03-22T15:05:34.268Z,97940.84
2018-03-22T15:08:01.969Z,97930.50
2018-03-22T15:10:29.567Z,97934.89
2018-03-22T15:12:57.378Z,97920.34
2018-03-22T15:15:25.314Z,97928.55
2018-03-22T15:17:52.852Z,97919.70
2018-03-22T15:20:20.547Z,97911.34
2018-03-22T15:22:48.983Z,97914.06
2018-03-22T15:25:16.616Z,97910.11
2018-03-22T15:27:44.297Z,97912.86
2018-03-22T15:30:12.092Z,97914.36
2018-03-22T15:32:39.823Z,97910.86
2018-03-22T15:35:07.453Z,97903.77
2018-03-22T15:37:35.323Z,97904.89
2018-03-22T15:40:02.919Z,97904.42
2018-03-22T15:42:30.997Z,97903.52
2018-03-22T15:44:58.728Z,97904.63
2018-03-22T15:47:26.577Z,97897.13
2018-03-22T15:49:54.560Z,97900.81
2018-03-22T15:52:22.284Z,97900.01
2018-03-22T15:54:49.942Z,97894.30
2018-03-22T15:57:17.624Z,97889.06
2018-03-22T15:59:45.407Z,97890.34
2018-03-22T16:02:13.714Z,97891.98
2018-03-22T16:04:41.413Z,97893.58
2018-03-22T16:07:09.227Z,97886.95
2018-03-22T16:09:36.848Z,97880.52
2018-03-22T16:12:04.473Z,97877.52
2018-03-22T16:14:32.015Z,97874.66
2018-03-22T16:16:59.737Z,97879.50
2018-03-22T16:19:27.317Z,97868.31
2018-03-22T16:21:54.953Z,97874.32
2018-03-22T16:24:22.519Z,97884.98
2018-03-22T16:26:50.231Z,97885.70
2018-03-22T16:29:17.792Z,97888.09
2018-03-22T16:31:45.412Z,97884.34
2018-03-22T16:34:12.965Z,97881.57
2018-03-22T16:36:40.543Z,97881.59
2018-03-22T16:39:08.154Z,97887.05
2018-03-22T16:41:35.802Z,97886.55
2018-03-22T16:44:03.403Z,97890.41
2018-03-22T16:46:32.509Z,97893.09
2018-03-22T16:49:00.147Z,97896.79
2018-03-22T16:51:27.919Z,97896.52
2018-03-22T16:53:55.703Z,97901.72
2018-03-22T16:56:26.796Z,97906.23
2018-03-22T16:58:54.461Z,97905.06
2018-03-22T17:01:22.087Z,97907.10
2018-03-22T17:03:49.633Z,97911.86
2018-03-22T17:06:17.294Z,97914.71
2018-03-22T17:08:44.979Z,97908.95
2018-03-22T17:11:12.617Z,97910.53
2018-03-22T17:13:40.593Z,97909.39
2018-03-22T17:16:08.886Z,97906.34
2018-03-22T17:18:36.814Z,97900.28
2018-03-22T17:21:04.408Z,97899.65
2018-03-22T17:23:32.094Z,97906.75
2018-03-22T17:25:59.647Z,97902.34
2018-03-22T17:28:27.452Z,97895.65
2018-03-22T17:30:55.189Z,97894.12
2018-03-22T17:33:22.786Z,97896.08
2018-03-22T17:35:50.374Z,97895.64
2018-03-22T17:38:18.128Z,97892.84
2018-03-22T17:40:45.795Z,97884.39
2018-03-22T17:43:14.189Z,97880.50
2018-03-22T17:45:42.148Z,97877.58
2018-03-22T17:48:09.700Z,97877.36
2018-03-22T17:50:37.562Z,97870.77
2018-03-22T17:53:05.109Z,97869.89
2018-03-22T17:55:32.982Z,97865.69
2018-03-22T17:58:01.318Z,97870.97
2018-03-22T18:00:29.083Z,97866.52
2018-03-22T18:02:57.693Z,97869.98
2018-03-22T18:05:25.694Z,97869.28
2018-03-22T18:07:53.582Z,97872.02
2018-03-22T18:10:21.508Z,97861.63
2018-03-22T18:12:49.534Z,97878.34
2018-03-22T18:15:17.387Z,97879.00
2018-03-22T18:17:45.111Z,97874.13
2018-03-22T18:20:12.915Z,97878.36
2018-03-22T18:22:41.012Z,97886.70
2018-03-22T18:25:08.588Z,97878.71
2018-03-22T18:27:36.968Z,97876.05
2018-03-22T18:30:04.948Z,97874.16
2018-03-22T18:32:33.391Z,97870.39
2018-03-22T18:35:01.379Z,97874.51
2018-03-22T18:37:29.064Z,97867.80
2018-03-22T18:39:56.744Z,97867.88
2018-03-22T18:42:24.367Z,97865.72
2018-03-22T18:44:52.364Z,97864.12
2018-03-22T18:47:20.028Z,97860.47
2018-03-22T18:49:47.872Z,97857.81
2018-03-22T18:52:15.462Z,97861.89
2018-03-22T18:54:43.093Z,97856.45
2018-03-22T18:57:10.814Z,97856.20
2018-03-22T18:59:38.529Z,97851.13
2018-03-22T19:02:07.347Z,97860.20
2018-03-22T19:04:34.898Z,97859.72
2018-03-22T19:07:02.568Z,97860.81
2018-03-22T19:09:31.399Z,97858.77
2018-03-22T19:11:59.229Z,97857.16
2018-03-22T19:14:26.925Z,97854.23
2018-03-22T19:16:55.400Z,97858.86
2018-03-22T19:19:23.027Z,97856.66
2018-03-22T19:21:50.579Z,97862.44
2018-03-22T19:24:18.278Z,97857.56
2018-03-22T19:26:46.028Z,97851.91
2018-03-22T19:29:13.672Z,97858.35
2018-03-22T19:31:41.628Z,97855.55
2018-03-22T19:34:09.264Z,97861.09
2018-03-22T19:36:37.235Z,97857.64
2018-03-22T19:39:05.783Z,97860.17
2018-03-22T19:41:33.470Z,97859.03
2018-03-22T19:44:01.167Z,97857.59
2018-03-22T19:46:29.012Z,97856.61
2018-03-22T19:48:57.007Z,97855.57
2018-03-22T19:51:25.593Z,97859.19
2018-03-22T19:53:53.245Z,97856.16
2018-03-22T19:56:20.918Z,97854.94
2018-03-22T19:58:48.648Z,97855.47
2018-03-22T20:01:16.442Z,97849.57
2018-03-22T20:03:44.000Z,97851.56
2018-03-22T20:06:12.420Z,97845.04
2018-03-22T20:08:40.178Z,97845.00
2018-03-22T20:11:07.865Z,97844.42
2018-03-22T20:13:35.536Z,97843.82
2018-03-22T20:16:03.349Z,97839.91
2018-03-22T20:18:31.023Z,97842.75
2018-03-22T20:20:58.808Z,97836.28
2018-03-22T20:23:26.398Z,97832.52
2018-03-22T20:25:54.041Z,97834.83
2018-03-22T20:28:21.824Z,97837.06
2018-03-22T20:30:50.453Z,97836.22
2018-03-22T20:33:18.285Z,97828.71
2018-03-22T20:35:46.008Z,97832.62
2018-03-22T20:38:13.641Z,97823.28
2018-03-22T20:40:41.299Z,97827.13
2018-03-22T20:43:09.119Z,97824.82
2018-03-22T20:45:36.774Z,97822.82
2018-03-22T20:48:04.533Z,97826.53
2018-03-22T20:50:32.097Z,97825.38
2018-03-22T20:52:59.676Z,97817.91
2018-03-22T20:55:27.606Z,97817.00
2018-03-22T20:57:55.178Z,97813.91
2018-03-22T21:00:22.963Z,97815.69
2018-03-22T21:02:50.748Z,97816.01
2018-03-22T21:05:19.568Z,97817.63
2018-03-22T21:07:47.125Z,97820.08
2018-03-22T21:10:14.733Z,97818.70
2018-03-22T21:12:42.459Z,97809.75
2018-03-22T21:15:10.078Z,97814.70
2018-03-22T21:17:37.679Z,97810.04
2018-03-22T21:20:05.324Z,97812.80
2018-03-22T21:22:33.014Z,97813.57
2018-03-22T21:25:00.604Z,97806.82
2018-03-22T21:27:28.164Z,97797.86
2018-03-22T21:29:55.804Z,97801.17
2018-03-22T21:32:23.382Z,97798.91
2018-03-22T21:34:50.958Z,97798.27
2018-03-22T21:37:18.613Z,97797.40
2018-03-22T21:39:46.200Z,97801.83
2018-03-22T21:42:13.809Z,97795.77
2018-03-22T21:44:41.411Z,97795.80
2018-03-22T21:47:21.033Z,97793.89
2018-03-22T21:49:49.592Z,97777.34
2018-03-22T21:52:29.118Z,97771.74
2018-03-22T21:54:56.759Z,97762.03
2018-03-22T21:57:24.301Z,97762.14
2018-03-22T21:59:51.853Z,97759.83
2018-03-22T22:02:20.149Z,97764.30
2018-03-22T22:04:47.758Z,97754.00
2018-03-22T22:07:15.317Z,97756.98
2018-03-22T22:09:42.898Z,97750.47
2018-03-22T22:12:10.485Z,97747.28
2018-03-22T22:14:38.044Z,97755.33
2018-03-22T22:17:05.710Z,97747.08
2018-03-22T22:19:33.397Z,97755.91
2018-03-22T22:22:01.091Z,97749.62
2018-03-22T22:24:28.892Z,97754.41
2018-03-22T22:26:56.590Z,97755.88
2018-03-22T22:29:25.328Z,97743.75
2018-03-22T22:31:52.932Z,97751.95
2018-03-22T22:34:20.776Z,97748.78
2018-03-22T22:36:48.334Z,97751.31
2018-03-22T22:39:16.136Z,97740.84
2018-03-22T22:41:43.801Z,97738.22
2018-03-22T22:44:11.437Z,97734.96
2018-03-22T22:46:39.142Z,97735.11
2018-03-22T22:49:06.692Z,97730.62
2018-03-22T22:51:34.303Z,97723.31
2018-03-22T22:54:01.889Z,97724.86
2018-03-22T22:56:29.712Z,97719.19
2018-03-22T22:58:57.394Z,97709.78
2018-03-22T23:01:24.942Z,97705.41
2018-03-22T23:03:52.613Z,97705.13
2018-03-22T23:06:20.217Z,97707.63
2018-03-22T23:08:47.743Z,97697.02
2018-03-22T23:11:15.393Z,97693.48
2018-03-22T23:13:43.134Z,97699.41
2018-03-22T23:16:10.833Z,97700.89
2018-03-22T23:18:38.592Z,97695.64
2018-03-22T23:21:06.394Z,97695.23
2018-03-22T23:23:34.341Z,97697.81
2018-03-22T23:26:01.916Z,97697.52
2018-03-22T23:28:29.563Z,97687.66
2018-03-22T23:30:57.212Z,97691.02
2018-03-22T23:33:24.958Z,97694.77
2018-03-22T23:35:52.541Z,97687.88
2018-03-22T23:38:20.138Z,97690.77
2018-03-22T23:40:47.778Z,97691.42
2018-03-22T23:43:15.468Z,97687.28
2018-03-22T23:45:43.333Z,97682.00
2018-03-22T23:48:11.187Z,97683.84
2018-03-22T23:50:38.948Z,97679.41
2018-03-22T23:53:06.582Z,97680.34
2018-03-22T23:55:34.257Z,97675.83
2018-03-22T23:58:01.876Z,97681.88
